createdAt,value
2023-04-18T00:00:24.600Z,11.78
2023-04-18T00:03:05.095Z,11.77
2023-04-18T00:05:41.681Z,11.78
2023-04-18T00:11:43.071Z,11.77
2023-04-18T00:19:06.387Z,11.71
2023-04-18T00:31:21.650Z,11.57
2023-04-18T00:34:34.606Z,11.54
2023-04-18T00:37:25.698Z,11.49
2023-04-18T00:40:02.492Z,11.45
2023-04-18T00:42:42.552Z,11.43
2023-04-18T00:45:48.645Z,11.38
2023-04-18T00:48:43.019Z,11.34
2023-04-18T00:51:48.565Z,11.30
2023-04-18T00:54:26.772Z,11.30
2023-04-18T00:57:16.636Z,11.32
2023-04-18T00:59:52.319Z,11.37
2023-04-18T01:02:32.334Z,11.41
2023-04-18T01:05:09.995Z,11.44
2023-04-18T01:07:48.570Z,11.46
2023-04-18T01:11:15.715Z,11.36
2023-04-18T01:14:01.574Z,11.52
2023-04-18T01:16:44.801Z,11.55
2023-04-18T01:19:26.033Z,11.58
2023-04-18T01:21:57.107Z,11.62
2023-04-18T01:24:52.162Z,11.67
2023-04-18T01:30:40.988Z,11.65
2023-04-18T01:33:29.287Z,11.62
2023-04-18T01:36:16.181Z,11.59
2023-04-18T01:38:50.623Z,11.56
2023-04-18T01:41:41.133Z,11.54
2023-04-18T01:44:17.901Z,11.48
2023-04-18T01:46:50.089Z,11.44
2023-04-18T01:50:24.063Z,11.41
2023-04-18T01:53:02.736Z,11.37
2023-04-18T01:56:02.449Z,11.29
2023-04-18T01:59:01.166Z,11.24
2023-04-18T02:13:44.527Z,11.04
2023-04-18T02:16:30.499Z,10.98
2023-04-18T02:19:04.230Z,10.95
2023-04-18T02:21:56.711Z,10.92
2023-04-18T02:24:46.746Z,10.92
2023-04-18T02:27:48.012Z,10.91
2023-04-18T02:30:24.626Z,10.90
2023-04-18T02:34:14.418Z,10.89
2023-04-18T02:36:51.916Z,10.88
2023-04-18T02:39:32.997Z,10.85
2023-04-18T02:42:21.562Z,10.82
2023-04-18T02:45:02.017Z,10.83
2023-04-18T02:48:04.898Z,10.82
2023-04-18T02:50:44.139Z,10.83
2023-04-18T02:56:47.610Z,10.80
2023-04-18T02:59:41.424Z,10.79
2023-04-18T03:02:32.716Z,10.80
2023-04-18T03:05:47.626Z,10.79
2023-04-18T03:08:51.035Z,10.78
2023-04-18T03:11:39.377Z,10.76
2023-04-18T03:15:35.482Z,10.75
2023-04-18T03:18:21.797Z,10.74
2023-04-18T03:21:40.979Z,10.71
2023-04-18T09:44:22.659Z,14.10
2023-04-18T09:51:23.229Z,14.01
2023-04-18T09:55:06.899Z,14.01
2023-04-18T09:58:31.856Z,14.29
2023-04-18T10:01:12.890Z,14.30
2023-04-18T10:03:50.018Z,14.28
2023-04-18T10:06:49.756Z,14.20
2023-04-18T10:09:44.292Z,14.22
2023-04-18T10:12:24.461Z,14.39
2023-04-18T10:15:01.579Z,14.48
2023-04-18T10:18:08.525Z,14.74
2023-04-18T10:20:49.391Z,15.00
2023-04-18T10:24:13.148Z,15.03
2023-04-18T10:27:18.607Z,15.01
2023-04-18T10:30:09.226Z,15.15
2023-04-18T10:41:40.257Z,15.60
2023-04-18T10:45:03.117Z,15.65
2023-04-18T10:52:27.449Z,15.45
2023-04-18T10:55:19.794Z,15.18
2023-04-18T10:57:51.151Z,14.92
2023-04-18T11:00:27.817Z,14.93
2023-04-18T11:03:42.075Z,15.04
2023-04-18T11:06:47.952Z,15.26
2023-04-18T11:09:24.034Z,15.54
2023-04-18T11:12:17.504Z,15.80
2023-04-18T11:15:23.485Z,15.98
2023-04-18T11:18:07.066Z,16.03
2023-04-18T11:21:10.321Z,16.10
2023-04-18T11:23:46.562Z,16.10
2023-04-18T11:26:23.290Z,16.12
2023-04-18T11:29:08.858Z,16.09
2023-04-18T11:31:41.351Z,15.95
2023-04-18T11:34:31.802Z,15.81
2023-04-18T11:38:11.192Z,15.74
2023-04-18T11:40:59.425Z,15.75
2023-04-18T11:43:52.949Z,15.82
2023-04-18T11:46:43.283Z,15.89
2023-04-18T11:50:01.424Z,15.89
2023-04-18T11:52:57.224Z,15.86
2023-04-18T18:48:23.705Z,13.72
2023-04-18T18:56:11.466Z,13.23
2023-04-18T18:59:06.182Z,13.07
2023-04-18T19:05:38.058Z,12.89
2023-04-18T19:09:19.431Z,12.84
2023-04-18T19:12:40.137Z,12.77
2023-04-18T19:15:31.457Z,12.71
2023-04-18T19:18:29.227Z,12.67
2023-04-18T19:21:56.249Z,12.63
2023-04-18T19:29:37.244Z,12.55
2023-04-18T19:37:23.540Z,12.41
2023-04-18T19:40:23.558Z,12.36
2023-04-18T19:43:19.960Z,12.33
2023-04-18T19:46:39.855Z,12.30
2023-04-18T19:49:57.992Z,12.26
2023-04-18T19:53:33.548Z,12.19
2023-04-18T19:56:31.534Z,12.13
2023-04-18T20:03:24.989Z,12.06
2023-04-18T20:07:00.298Z,12.01
2023-04-18T20:09:38.165Z,11.98
2023-04-18T20:13:32.516Z,11.94
2023-04-18T20:16:32.442Z,11.93
2023-04-18T20:19:18.098Z,11.90
2023-04-18T20:21:50.073Z,11.89
2023-04-18T20:24:44.456Z,11.89
2023-04-18T20:27:38.581Z,11.86
2023-04-18T20:30:33.569Z,11.84
2023-04-18T20:33:47.525Z,11.87
2023-04-18T20:36:44.879Z,11.88
2023-04-18T20:39:21.964Z,11.87
2023-04-18T20:42:00.543Z,11.87
2023-04-18T20:45:03.331Z,11.88
2023-04-18T20:47:51.810Z,11.88
2023-04-18T20:50:31.776Z,11.82
2023-04-18T20:54:20.033Z,11.79
2023-04-18T20:57:02.058Z,11.77
2023-04-18T21:00:02.393Z,11.73
2023-04-18T21:02:49.944Z,11.72
2023-04-18T21:05:41.215Z,11.69
2023-04-18T21:09:00.424Z,11.68
2023-04-18T21:11:36.743Z,11.70
2023-04-18T21:14:32.552Z,11.76
2023-04-18T21:17:06.674Z,11.82
2023-04-18T21:20:17.160Z,11.83
2023-04-18T21:23:15.115Z,11.84
2023-04-18T21:25:51.109Z,11.85
2023-04-18T21:28:30.583Z,11.86
2023-04-18T21:31:05.227Z,11.82
2023-04-18T21:33:46.583Z,11.78
2023-04-18T21:36:40.585Z,11.73
2023-04-18T21:39:18.908Z,11.69
2023-04-18T21:41:54.420Z,11.64
2023-04-18T21:44:49.600Z,11.61
2023-04-18T21:47:26.281Z,11.59
2023-04-18T21:50:09.723Z,11.62
2023-04-18T21:52:49.654Z,11.64
2023-04-18T21:55:22.579Z,11.66
2023-04-18T21:58:11.940Z,11.66
2023-04-18T22:00:49.474Z,11.62
2023-04-18T22:03:23.932Z,11.58
2023-04-18T22:06:01.209Z,11.54
2023-04-18T22:08:36.508Z,11.50
2023-04-18T22:11:11.863Z,11.47
2023-04-18T22:14:17.941Z,11.45
2023-04-18T22:16:53.873Z,11.39
2023-04-18T22:19:27.952Z,11.34
2023-04-18T22:23:03.617Z,11.30
2023-04-18T22:25:59.953Z,11.34
2023-04-18T22:28:40.261Z,11.38
2023-04-18T22:31:21.531Z,11.40
2023-04-18T22:33:53.358Z,11.41
2023-04-18T22:36:45.089Z,11.42
2023-04-18T22:39:22.770Z,11.35
2023-04-18T22:41:55.759Z,11.28
2023-04-18T22:44:28.161Z,11.24
2023-04-18T22:47:07.710Z,11.19
2023-04-18T22:57:58.207Z,11.00
2023-04-18T23:00:33.361Z,11.00
2023-04-18T23:03:20.686Z,11.04
2023-04-18T23:06:01.362Z,11.07
2023-04-18T23:08:40.953Z,11.09
2023-04-18T23:11:20.627Z,11.14
2023-04-18T23:14:00.385Z,11.20
2023-04-18T23:17:02.146Z,11.24
2023-04-18T23:19:41.453Z,11.11
2023-04-18T23:22:20.117Z,11.01
2023-04-18T23:24:52.330Z,10.95
2023-04-18T23:27:40.911Z,10.90
2023-04-18T23:30:42.601Z,10.84
2023-04-18T23:33:32.664Z,10.79
2023-04-18T23:36:07.047Z,10.76
2023-04-18T23:39:13.752Z,10.81
2023-04-18T23:41:55.061Z,10.85
2023-04-18T23:44:37.437Z,10.84
2023-04-18T23:47:34.556Z,10.83
2023-04-18T23:50:13.917Z,10.85
2023-04-18T23:52:51.658Z,10.84
2023-04-18T23:55:26.768Z,10.76
2023-04-18T23:58:05.726Z,10.71
